Time;durP1;ratioP1;P1;durP2;ratioP2;P2;SDS_P1;SDS_P2;PMS_P1;PMS_P2;Temp;Humidity;BMP_temperature;BMP_pressure;BME280_temperature;BME280_humidity;BME280_pressure;Samples;Min_cycle;Max_cycle;Signal;HPM_P1;HPM_P2
2023/10/18 00:01:05;;;;;;;10.57;9.68;;;6.70;98.70;;;;;;4979232;28;20035;-89
2023/10/18 00:03:32;;;;;;;11.00;9.95;;;6.70;98.80;;;;;;4977014;28;20059;-91
2023/10/18 00:06:12;;;;;;;7.55;5.85;;;6.70;98.90;;;;;;4977633;28;20381;-91
2023/10/18 00:08:41;;;;;;;10.93;10.00;;;6.70;99.10;;;;;;5008988;28;20030;-91
2023/10/18 00:11:07;;;;;;;10.73;9.73;;;6.60;98.80;;;;;;4981618;28;20029;-90
2023/10/18 00:13:33;;;;;;;11.45;10.38;;;6.70;98.90;;;;;;4985270;28;20022;-91
2023/10/18 00:16:04;;;;;;;10.98;9.98;;;6.60;99.00;;;;;;4983778;28;20030;-89
2023/10/18 00:18:29;;;;;;;12.23;11.10;;;6.60;99.20;;;;;;4984659;28;20030;-90
2023/10/18 00:21:06;;;;;;;10.95;9.95;;;6.60;99.10;;;;;;4983931;28;20019;-90
2023/10/18 00:23:33;;;;;;;11.77;10.65;;;6.60;99.20;;;;;;4991889;28;20026;-91
2023/10/18 00:26:05;;;;;;;10.75;9.85;;;6.60;99.10;;;;;;4992270;28;20101;-90
2023/10/18 00:28:32;;;;;;;10.90;9.98;;;6.60;99.20;;;;;;4993020;28;20022;-90
2023/10/18 00:31:11;;;;;;;10.15;9.18;;;6.50;99.40;;;;;;4996711;28;20027;-91
2023/10/18 00:33:38;;;;;;;12.02;11.02;;;6.50;99.60;;;;;;4981388;28;20030;-90
2023/10/18 00:36:04;;;;;;;12.57;11.63;;;6.40;99.80;;;;;;4985640;28;20022;-90
2023/10/18 00:38:30;;;;;;;11.68;10.55;;;6.50;99.90;;;;;;4976791;28;20026;-88
2023/10/18 00:40:56;;;;;;;10.73;9.80;;;6.40;99.90;;;;;;4987932;28;20027;-89
2023/10/18 00:43:25;;;;;;;12.25;11.13;;;6.40;99.80;;;;;;4996202;28;20030;-92
2023/10/18 00:45:54;;;;;;;8.45;7.15;;;6.40;99.70;;;;;;4997645;28;20429;-92
2023/10/18 00:48:24;;;;;;;11.60;10.57;;;6.40;99.80;;;;;;5015096;28;20034;-90
2023/10/18 00:50:57;;;;;;;11.70;10.63;;;6.40;99.80;;;;;;5000012;28;20046;-89
2023/10/18 00:53:25;;;;;;;10.68;9.73;;;6.40;99.90;;;;;;4976847;28;20485;-88
2023/10/18 00:56:04;;;;;;;10.27;8.75;;;6.40;99.90;;;;;;4981075;28;20599;-89
2023/10/18 00:58:31;;;;;;;11.95;10.95;;;6.40;99.90;;;;;;4981096;28;20025;-89
2023/10/18 01:00:58;;;;;;;12.40;11.20;;;6.40;99.90;;;;;;4991399;28;20093;-90
2023/10/18 01:03:35;;;;;;;12.32;11.13;;;6.40;99.90;;;;;;5000865;28;20022;-93
2023/10/18 01:06:17;;;;;;;12.50;11.30;;;6.40;99.90;;;;;;4999500;28;20657;-92
2023/10/18 01:08:45;;;;;;;11.50;10.50;;;6.30;99.90;;;;;;4987224;28;20118;-91
2023/10/18 01:11:11;;;;;;;11.40;10.30;;;6.40;99.90;;;;;;4980138;28;20037;-90
2023/10/18 01:13:42;;;;;;;11.05;10.05;;;6.30;99.90;;;;;;4972016;28;20033;-90
2023/10/18 01:16:23;;;;;;;12.63;11.52;;;6.30;99.90;;;;;;4988804;28;20019;-90
2023/10/18 01:18:52;;;;;;;11.32;10.32;;;6.30;99.90;;;;;;4988043;28;20073;-89
2023/10/18 01:21:19;;;;;;;12.35;11.18;;;6.30;99.90;;;;;;4986357;28;20025;-89
2023/10/18 01:23:56;;;;;;;11.38;10.40;;;6.30;99.90;;;;;;4995592;28;20053;-92
2023/10/18 01:26:24;;;;;;;12.55;11.45;;;6.30;99.90;;;;;;4984713;28;20053;-91
2023/10/18 01:28:54;;;;;;;11.73;10.57;;;6.30;99.90;;;;;;4990091;28;20084;-92
2023/10/18 01:31:21;;;;;;;10.85;8.88;;;6.30;99.90;;;;;;4980717;28;20030;-91
2023/10/18 01:33:47;;;;;;;11.40;10.40;;;6.30;99.90;;;;;;4990073;28;20030;-90
2023/10/18 01:36:15;;;;;;;12.30;11.15;;;6.30;99.90;;;;;;4991049;28;20114;-90
2023/10/18 01:38:46;;;;;;;11.40;10.48;;;6.30;99.90;;;;;;4989710;28;20062;-92
2023/10/18 01:41:37;;;;;;;12.35;11.15;;;6.30;99.90;;;;;;4966904;28;20031;-92
2023/10/18 01:46:31;;;;;;;12.68;11.32;;;6.30;99.90;;;;;;4998662;28;20036;-91
2023/10/18 01:48:57;;;;;;;11.75;10.60;;;6.40;99.90;;;;;;4980398;28;20082;-91
2023/10/18 01:51:23;;;;;;;12.38;11.15;;;6.40;99.90;;;;;;4980036;28;20034;-91
2023/10/18 01:53:50;;;;;;;11.00;9.90;;;6.30;99.90;;;;;;4997857;28;20504;-89
2023/10/18 01:56:19;;;;;;;13.02;11.77;;;6.30;99.90;;;;;;4990930;28;20022;-91
2023/10/18 01:58:46;;;;;;;11.15;10.05;;;6.20;99.90;;;;;;4980566;28;20027;-90
2023/10/18 02:01:16;;;;;;;11.32;10.35;;;6.20;99.90;;;;;;4984344;28;20030;-90
2023/10/18 02:03:44;;;;;;;11.38;10.38;;;6.20;99.90;;;;;;4977852;28;20019;-91
2023/10/18 02:06:13;;;;;;;8.63;6.63;;;6.20;99.90;;;;;;4972370;28;20381;-91
2023/10/18 02:08:40;;;;;;;11.82;10.30;;;6.20;99.90;;;;;;4986023;28;20034;-91
2023/10/18 02:11:08;;;;;;;11.65;10.55;;;6.30;99.90;;;;;;4980783;28;20105;-91
2023/10/18 02:13:37;;;;;;;12.70;11.23;;;6.30;99.90;;;;;;4986838;28;20023;-90
2023/10/18 02:16:06;;;;;;;10.20;8.68;;;6.30;99.90;;;;;;4978617;28;20362;-92
2023/10/18 02:18:35;;;;;;;11.65;10.48;;;6.20;99.90;;;;;;4989533;28;20041;-90
2023/10/18 02:21:02;;;;;;;10.95;9.98;;;6.20;99.90;;;;;;4987611;28;20034;-91
2023/10/18 02:23:34;;;;;;;11.07;9.98;;;6.20;99.90;;;;;;4987471;28;20050;-91
2023/10/18 02:28:50;;;;;;;12.32;11.20;;;6.10;99.90;;;;;;4980601;28;20082;-91
2023/10/18 02:31:21;;;;;;;12.70;11.55;;;6.10;99.90;;;;;;4980718;28;20034;-91
2023/10/18 02:33:53;;;;;;;12.95;11.82;;;6.20;99.90;;;;;;4978183;28;20027;-89
2023/10/18 02:36:23;;;;;;;11.77;10.68;;;6.10;99.90;;;;;;4980399;28;20026;-91
2023/10/18 02:38:49;;;;;;;12.60;11.43;;;6.10;99.90;;;;;;4980365;28;20026;-91
2023/10/18 02:41:21;;;;;;;11.18;10.18;;;6.10;99.90;;;;;;4974243;28;20409;-91
2023/10/18 02:43:50;;;;;;;11.93;10.73;;;6.10;99.90;;;;;;4960677;28;20032;-91
2023/10/18 02:46:16;;;;;;;10.75;9.70;;;6.00;99.90;;;;;;4979490;28;20023;-90
2023/10/18 02:48:44;;;;;;;15.50;14.15;;;6.10;99.90;;;;;;4977389;28;20033;-91
2023/10/18 02:51:13;;;;;;;13.60;12.32;;;6.00;99.90;;;;;;4991203;28;20030;-90
2023/10/18 02:53:41;;;;;;;12.65;11.55;;;6.00;99.90;;;;;;4998051;28;20130;-91
2023/10/18 02:56:17;;;;;;;;;;;6.00;99.90;;;;;;4983289;28;20038;-91
2023/10/18 02:58:43;;;;;;;12.23;10.50;;;5.90;99.90;;;;;;4980776;28;19906;-90
2023/10/18 03:01:09;;;;;;;13.13;10.75;;;5.90;99.90;;;;;;4973742;28;20042;-91
2023/10/18 03:03:35;;;;;;;11.63;9.95;;;5.90;99.90;;;;;;4962000;28;20525;-92
2023/10/18 03:06:16;;;;;;;12.65;11.35;;;5.90;99.90;;;;;;4975689;28;20567;-92
2023/10/18 03:08:44;;;;;;;11.32;10.35;;;5.90;99.90;;;;;;4969860;28;20022;-91
2023/10/18 03:11:13;;;;;;;10.85;9.75;;;5.90;99.90;;;;;;4990529;28;20022;-92
2023/10/18 03:13:39;;;;;;;13.25;11.95;;;6.00;99.90;;;;;;4981929;28;20054;-91
2023/10/18 03:16:05;;;;;;;11.45;10.35;;;5.90;99.90;;;;;;4989271;28;20046;-90
2023/10/18 03:18:34;;;;;;;11.73;10.63;;;5.90;99.90;;;;;;4990386;28;20022;-90
2023/10/18 03:21:04;;;;;;;13.85;12.73;;;5.90;99.90;;;;;;4987323;28;20023;-91
2023/10/18 03:23:31;;;;;;;13.55;12.30;;;5.90;99.90;;;;;;4994239;28;20026;-89
2023/10/18 03:26:03;;;;;;;12.75;11.02;;;5.90;99.90;;;;;;4981363;28;20128;-92
2023/10/18 03:28:34;;;;;;;13.07;11.82;;;5.90;99.90;;;;;;4982731;28;20027;-89
2023/10/18 03:31:05;;;;;;;12.98;11.98;;;5.80;99.90;;;;;;4979468;28;20034;-89
2023/10/18 03:33:32;;;;;;;13.95;11.98;;;6.00;99.90;;;;;;4986834;28;20522;-90
2023/10/18 03:36:17;;;;;;;10.25;8.48;;;6.00;99.90;;;;;;4993812;28;20445;-92
2023/10/18 03:38:43;;;;;;;10.30;9.27;;;5.90;99.90;;;;;;4978308;28;20418;-90
2023/10/18 03:41:15;;;;;;;13.23;11.52;;;5.90;99.90;;;;;;4969848;28;20038;-89
2023/10/18 03:43:42;;;;;;;12.60;11.27;;;5.90;99.90;;;;;;4988016;28;20074;-90
2023/10/18 03:46:09;;;;;;;12.02;10.98;;;5.80;99.90;;;;;;4999210;28;20053;-90
2023/10/18 03:48:39;;;;;;;12.55;11.35;;;5.80;99.90;;;;;;4985293;28;20046;-90
2023/10/18 03:51:06;;;;;;;11.93;10.10;;;5.80;99.90;;;;;;4981566;28;20078;-90
2023/10/18 03:53:36;;;;;;;13.20;11.93;;;5.70;99.90;;;;;;4989693;28;20113;-89
2023/10/18 03:56:04;;;;;;;12.93;11.50;;;5.70;99.90;;;;;;5000704;28;20042;-90
2023/10/18 03:58:34;;;;;;;13.65;12.35;;;5.70;99.90;;;;;;4991511;28;20094;-90
2023/10/18 04:01:01;;;;;;;12.52;11.30;;;5.70;99.90;;;;;;4983633;28;20046;-90
2023/10/18 04:03:29;;;;;;;11.77;10.43;;;5.70;99.90;;;;;;4979960;28;20082;-90
2023/10/18 04:06:03;;;;;;;14.43;13.02;;;5.70;99.90;;;;;;4985001;28;20095;-90
2023/10/18 04:08:29;;;;;;;13.90;12.50;;;5.70;99.90;;;;;;4985094;28;20106;-90
2023/10/18 04:10:59;;;;;;;14.43;13.07;;;5.70;99.90;;;;;;4981726;28;20061;-89
2023/10/18 04:13:28;;;;;;;15.40;14.00;;;5.70;99.90;;;;;;4983389;28;20022;-89
2023/10/18 04:16:00;;;;;;;15.50;13.90;;;5.70;99.90;;;;;;4988465;28;20026;-90
2023/10/18 04:18:28;;;;;;;17.38;14.18;;;5.70;99.90;;;;;;4987998;28;20025;-89
2023/10/18 04:20:54;;;;;;;17.08;15.48;;;5.60;99.90;;;;;;4981743;28;20034;-90
2023/10/18 04:23:26;;;;;;;18.10;16.27;;;5.70;99.90;;;;;;4981638;28;20019;-91
2023/10/18 04:25:57;;;;;;;16.85;15.30;;;5.60;99.90;;;;;;4983771;28;20110;-90
2023/10/18 04:28:24;;;;;;;15.65;14.25;;;5.60;99.90;;;;;;4985999;28;20107;-91
2023/10/18 04:31:03;;;;;;;14.45;13.07;;;5.60;99.90;;;;;;4990677;28;20074;-91
2023/10/18 04:33:37;;;;;;;16.13;14.57;;;5.60;99.90;;;;;;4981855;28;20034;-91
2023/10/18 04:36:11;;;;;;;12.85;10.00;;;5.60;99.90;;;;;;4974516;28;20417;-91
2023/10/18 04:38:47;;;;;;;15.25;12.93;;;5.60;99.90;;;;;;4981406;28;20023;-91
2023/10/18 04:41:26;;;;;;;15.32;13.45;;;5.60;99.90;;;;;;4981277;28;20019;-91
2023/10/18 04:43:53;;;;;;;15.60;14.13;;;5.60;99.90;;;;;;4983352;28;20023;-91
2023/10/18 04:46:25;;;;;;;14.32;13.00;;;5.60;99.90;;;;;;4989603;28;20026;-93
2023/10/18 04:54:03;;;;;;;;;;;5.60;99.90;;;;;;4970224;28;20027;-89
2023/10/18 04:56:31;;;;;;;13.32;10.77;;;5.60;99.90;;;;;;4973285;28;19929;-90
2023/10/18 05:01:56;;;;;;;14.85;11.93;;;5.60;99.90;;;;;;4979817;28;20058;-91
2023/10/18 05:04:32;;;;;;;14.38;12.88;;;5.60;99.90;;;;;;4985126;28;20118;-91
2023/10/18 05:07:20;;;;;;;12.27;11.05;;;5.60;99.90;;;;;;4964602;28;20124;-91
2023/10/18 05:09:45;;;;;;;16.33;14.48;;;5.60;99.90;;;;;;4965000;28;20122;-92
2023/10/18 05:17:30;;;;;;;14.77;11.80;;;5.60;99.90;;;;;;4976821;28;20031;-90
2023/10/18 05:19:56;;;;;;;16.83;14.75;;;5.60;99.90;;;;;;4970824;28;20054;-92
2023/10/18 05:22:25;;;;;;;16.27;14.68;;;5.70;99.90;;;;;;4976090;28;20027;-90
2023/10/18 05:24:56;;;;;;;15.77;12.88;;;5.70;99.90;;;;;;4969649;28;20229;-89
2023/10/18 05:27:35;;;;;;;14.77;13.27;;;5.70;99.90;;;;;;4972930;28;20119;-90
2023/10/18 05:30:08;;;;;;;13.38;12.02;;;5.70;99.90;;;;;;4968461;28;20041;-89
2023/10/18 05:35:19;;;;;;;14.38;12.98;;;5.70;99.90;;;;;;4972283;28;20260;-88
2023/10/18 05:37:50;;;;;;;15.07;13.50;;;5.70;99.90;;;;;;4971596;28;20086;-90
2023/10/18 05:43:03;;;;;;;14.60;13.20;;;5.70;99.90;;;;;;4972292;28;20125;-91
2023/10/18 05:45:32;;;;;;;;;;;5.70;99.90;;;;;;4972450;28;20018;-91
2023/10/18 05:48:02;;;;;;;14.52;13.18;;;5.70;99.90;;;;;;4974158;28;19914;-91
2023/10/18 05:50:34;;;;;;;14.23;12.73;;;5.80;99.90;;;;;;4971662;28;20484;-90
2023/10/18 05:53:07;;;;;;;15.98;14.38;;;5.80;99.90;;;;;;4972141;28;20069;-91
2023/10/18 05:55:35;;;;;;;14.88;13.35;;;5.80;99.90;;;;;;4969877;28;20019;-92
2023/10/18 05:58:04;;;;;;;15.38;13.90;;;5.80;99.90;;;;;;4971910;28;20082;-92
2023/10/18 06:00:34;;;;;;;16.50;14.88;;;5.80;99.90;;;;;;4955996;28;20041;-90
2023/10/18 06:03:01;;;;;;;15.55;13.90;;;5.90;99.90;;;;;;4973407;28;20035;-90
2023/10/18 06:05:36;;;;;;;14.52;12.93;;;5.90;99.90;;;;;;4953236;28;20027;-91
2023/10/18 06:08:01;;;;;;;18.40;16.55;;;5.90;99.90;;;;;;4969653;28;20058;-90
2023/10/18 06:10:27;;;;;;;15.70;14.00;;;5.90;99.90;;;;;;4971927;28;20047;-91
2023/10/18 06:12:57;;;;;;;13.70;11.75;;;5.90;99.90;;;;;;4972924;28;20027;-90
2023/10/18 06:15:44;;;;;;;15.25;13.77;;;6.00;99.90;;;;;;4985879;28;20560;-90
2023/10/18 06:18:18;;;;;;;13.40;11.88;;;6.00;99.90;;;;;;4972801;28;20050;-91
2023/10/18 06:20:45;;;;;;;16.13;14.30;;;6.00;99.90;;;;;;4958507;28;20161;-91
2023/10/18 06:23:36;;;;;;;13.48;12.07;;;6.10;99.90;;;;;;4973329;28;20106;-90
2023/10/18 06:28:49;;;;;;;14.45;13.05;;;6.10;99.90;;;;;;4976890;28;20054;-91
2023/10/18 06:31:14;;;;;;;16.60;13.43;;;6.10;99.90;;;;;;4983219;28;20030;-90
2023/10/18 06:33:40;;;;;;;13.43;11.95;;;6.10;99.90;;;;;;4992438;28;20046;-89
2023/10/18 06:36:12;;;;;;;18.38;12.85;;;6.20;99.90;;;;;;4989445;28;20445;-90
2023/10/18 06:38:38;;;;;;;13.60;12.23;;;6.20;99.90;;;;;;4975215;28;20038;-89
2023/10/18 06:41:11;;;;;;;15.05;12.90;;;6.20;99.90;;;;;;4994633;28;20023;-91
2023/10/18 06:43:37;;;;;;;15.95;14.48;;;6.20;99.90;;;;;;4978706;28;20057;-91
2023/10/18 06:46:04;;;;;;;13.73;12.30;;;6.30;99.90;;;;;;4978443;28;20395;-92
2023/10/18 06:48:33;;;;;;;15.30;13.68;;;6.30;99.90;;;;;;4973252;28;20035;-89
2023/10/18 06:50:59;;;;;;;14.82;12.88;;;6.30;99.90;;;;;;4976180;28;20041;-90
2023/10/18 06:53:28;;;;;;;14.57;11.95;;;6.30;99.80;;;;;;4982776;28;20110;-91
2023/10/18 06:55:58;;;;;;;13.88;12.45;;;6.40;99.60;;;;;;4981399;28;20027;-91
2023/10/18 07:01:00;;;;;;;14.23;12.27;;;6.50;99.30;;;;;;4994019;28;20098;-89
2023/10/18 07:03:29;;;;;;;15.60;14.10;;;6.50;98.80;;;;;;4994302;28;20030;-90
2023/10/18 07:06:04;;;;;;;15.60;13.93;;;6.60;98.10;;;;;;4981280;28;20058;-91
2023/10/18 07:08:32;;;;;;;;;;;6.60;97.90;;;;;;4981623;28;20042;-90
2023/10/18 07:11:02;;;;;;;14.13;12.65;;;6.60;97.20;;;;;;4971204;28;19916;-90
2023/10/18 07:13:38;;;;;;;14.27;12.88;;;6.70;97.30;;;;;;4992244;28;20030;-91
2023/10/18 07:16:11;;;;;;;16.83;15.25;;;6.80;97.00;;;;;;4979826;28;20023;-90
2023/10/18 07:18:38;;;;;;;15.23;13.73;;;6.90;96.80;;;;;;4976275;28;20026;-89
2023/10/18 07:21:05;;;;;;;14.43;13.10;;;6.90;96.60;;;;;;4988307;28;20023;-90
2023/10/18 07:23:36;;;;;;;15.43;13.80;;;6.90;96.20;;;;;;4967083;28;20068;-90
2023/10/18 07:26:02;;;;;;;14.60;13.05;;;7.00;96.50;;;;;;5001262;28;20030;-92
2023/10/18 07:28:29;;;;;;;15.15;13.57;;;7.00;96.10;;;;;;4994332;28;20023;-92
2023/10/18 07:30:55;;;;;;;13.38;12.00;;;7.10;95.80;;;;;;4989723;28;20030;-93
2023/10/18 07:33:23;;;;;;;13.80;12.40;;;7.10;95.90;;;;;;4993279;28;20034;-90
2023/10/18 07:35:49;;;;;;;;;;;7.20;95.50;;;;;;5001504;28;20131;-90
2023/10/18 07:38:25;;;;;;;14.45;12.95;;;7.30;94.90;;;;;;4998515;28;19910;-89
2023/10/18 07:40:59;;;;;;;15.70;13.20;;;7.30;94.80;;;;;;4989071;28;20026;-91
2023/10/18 07:43:27;;;;;;;14.00;12.52;;;7.30;95.50;;;;;;4979015;28;20087;-92
2023/10/18 07:45:55;;;;;;;13.20;11.88;;;7.30;94.80;;;;;;4978033;28;20021;-91
2023/10/18 07:48:23;;;;;;;13.98;12.55;;;7.30;95.30;;;;;;4976187;28;20027;-91
2023/10/18 07:50:52;;;;;;;15.35;12.93;;;7.30;95.30;;;;;;4994754;28;20038;-91
2023/10/18 07:53:20;;;;;;;13.65;12.18;;;7.40;95.00;;;;;;4983261;28;20031;-90
2023/10/18 07:55:57;;;;;;;13.70;12.27;;;7.50;94.10;;;;;;4990460;28;20035;-92
2023/10/18 07:58:26;;;;;;;15.82;13.88;;;7.60;93.60;;;;;;4988658;28;20036;-90
2023/10/18 08:03:28;;;;;;;14.55;13.05;;;7.70;92.90;;;;;;4995677;28;20054;-92
2023/10/18 08:06:06;;;;;;;14.75;12.35;;;7.80;92.50;;;;;;5011467;28;20018;-91
2023/10/18 08:08:32;;;;;;;14.18;11.77;;;7.80;92.40;;;;;;5003056;28;20011;-92
2023/10/18 08:10:59;;;;;;;15.25;13.75;;;7.80;92.60;;;;;;4993700;28;20042;-91
2023/10/18 08:13:28;;;;;;;16.45;14.82;;;7.90;91.90;;;;;;4991115;28;20027;-89
2023/10/18 08:16:01;;;;;;;15.68;12.85;;;8.00;91.20;;;;;;4991531;28;20042;-89
2023/10/18 08:18:42;;;;;;;15.35;13.55;;;8.10;91.60;;;;;;4981941;28;20055;-92
2023/10/18 08:21:08;;;;;;;14.25;12.32;;;8.20;90.90;;;;;;4977572;28;20027;-90
2023/10/18 08:23:35;;;;;;;14.40;12.98;;;8.30;90.30;;;;;;4970596;28;20023;-90
2023/10/18 08:26:03;;;;;;;15.23;12.98;;;8.30;90.50;;;;;;4986538;28;20030;-90
2023/10/18 08:28:42;;;;;;;15.15;13.85;;;8.40;90.10;;;;;;4960426;28;20061;-91
2023/10/18 08:31:33;;;;;;;13.35;11.95;;;8.50;89.60;;;;;;4981934;28;20026;-89
2023/10/18 08:34:05;;;;;;;13.27;11.93;;;8.70;88.80;;;;;;4990203;28;20651;-91
2023/10/18 08:36:34;;;;;;;14.45;12.95;;;8.80;88.40;;;;;;4988187;28;20023;-90
2023/10/18 08:39:01;;;;;;;13.82;12.48;;;9.00;87.30;;;;;;4988106;28;20074;-90
2023/10/18 08:41:36;;;;;;;13.02;11.63;;;9.20;86.50;;;;;;4981914;28;20079;-92
2023/10/18 08:44:16;;;;;;;13.48;12.07;;;9.20;86.10;;;;;;4968744;28;20488;-91
2023/10/18 08:46:43;;;;;;;12.90;11.70;;;9.20;84.70;;;;;;4997518;28;20046;-90
2023/10/18 08:49:13;;;;;;;12.63;11.35;;;9.30;84.80;;;;;;4974577;28;20022;-90
2023/10/18 08:51:44;;;;;;;12.55;11.35;;;9.40;84.80;;;;;;4999750;28;20516;-90
2023/10/18 08:54:18;;;;;;;14.10;11.73;;;9.50;84.40;;;;;;4986549;28;20049;-90
2023/10/18 08:56:48;;;;;;;13.30;12.00;;;9.60;84.70;;;;;;4991725;28;20057;-91
2023/10/18 08:59:18;;;;;;;14.55;13.02;;;9.70;84.00;;;;;;5000415;28;20046;-92
2023/10/18 09:04:54;;;;;;;13.65;12.45;;;9.80;83.70;;;;;;4920556;29;20032;-90
2023/10/18 09:07:22;;;;;;;13.85;12.45;;;10.00;82.40;;;;;;4976226;28;20121;-91
2023/10/18 09:09:55;;;;;;;11.63;10.45;;;10.00;81.90;;;;;;4980331;28;20034;-91
2023/10/18 09:12:33;;;;;;;13.10;11.68;;;10.10;81.00;;;;;;4973699;28;20031;-92
2023/10/18 09:15:25;;;;;;;12.00;10.90;;;10.10;81.80;;;;;;4987923;28;20029;-90
2023/10/18 09:17:45;;;;;;;10.00;8.18;;;10.10;82.30;;;;;;4980068;28;20393;-91
2023/10/18 09:20:15;;;;;;;12.77;10.73;;;10.20;81.40;;;;;;4995499;28;20023;-91
2023/10/18 09:22:48;;;;;;;12.90;11.70;;;10.20;81.00;;;;;;4988618;28;20042;-91
2023/10/18 09:25:14;;;;;;;10.68;9.63;;;10.30;80.50;;;;;;4979405;28;20437;-93
2023/10/18 09:27:39;;;;;;;11.45;10.35;;;10.40;81.10;;;;;;4962188;28;20034;-89
2023/10/18 09:30:10;;;;;;;12.15;10.98;;;10.50;80.30;;;;;;4987022;28;20033;-91
2023/10/18 09:32:36;;;;;;;11.57;10.40;;;10.50;80.70;;;;;;4966766;28;20087;-91
2023/10/18 09:35:09;;;;;;;14.50;11.02;;;10.70;80.00;;;;;;4977030;28;20019;-92
2023/10/18 09:37:38;;;;;;;10.55;9.40;;;11.00;78.30;;;;;;4975079;28;20051;-92
2023/10/18 09:40:05;;;;;;;11.15;10.05;;;11.20;76.80;;;;;;4975999;28;20022;-90
2023/10/18 09:42:31;;;;;;;14.57;12.38;;;11.40;76.40;;;;;;4985681;28;20102;-92
2023/10/18 09:44:57;;;;;;;10.48;9.45;;;11.40;75.90;;;;;;4994321;28;20027;-90
2023/10/18 09:47:23;;;;;;;12.10;10.73;;;11.50;76.30;;;;;;4979071;28;20038;-89
2023/10/18 09:49:50;;;;;;;12.63;11.32;;;11.50;73.70;;;;;;4979479;28;20063;-91
2023/10/18 09:52:18;;;;;;;12.05;10.88;;;11.40;75.20;;;;;;4993192;28;20026;-91
2023/10/18 09:54:51;;;;;;;11.57;10.38;;;11.50;75.40;;;;;;4990633;28;20389;-91
2023/10/18 09:57:25;;;;;;;15.20;12.45;;;11.50;75.20;;;;;;4971614;28;20031;-90
2023/10/18 09:59:54;;;;;;;11.55;9.82;;;11.50;75.30;;;;;;4980695;28;20023;-90
2023/10/18 10:02:21;;;;;;;12.40;11.25;;;11.70;74.80;;;;;;4980615;28;20083;-91
2023/10/18 10:04:55;;;;;;;8.82;7.38;;;11.70;74.30;;;;;;4971039;28;20424;-91
2023/10/18 10:07:28;;;;;;;12.38;11.35;;;11.70;74.30;;;;;;4986078;28;20059;-90
2023/10/18 10:10:07;;;;;;;10.85;9.85;;;11.60;74.70;;;;;;4979757;28;20023;-92
2023/10/18 10:12:34;;;;;;;10.45;9.45;;;11.60;75.20;;;;;;4980595;28;20034;-90
2023/10/18 10:15:13;;;;;;;13.32;11.98;;;11.70;75.30;;;;;;4960247;28;20030;-93
2023/10/18 10:17:42;;;;;;;12.43;9.15;;;11.70;74.70;;;;;;4992242;28;20110;-91
2023/10/18 10:20:14;;;;;;;11.45;10.38;;;11.70;75.60;;;;;;4979807;28;20023;-90
2023/10/18 10:22:42;;;;;;;12.18;10.98;;;11.70;74.00;;;;;;4988915;28;20048;-91
2023/10/18 10:25:18;;;;;;;11.25;10.18;;;11.60;74.70;;;;;;4991534;28;20024;-91
2023/10/18 10:27:49;;;;;;;10.98;9.75;;;11.60;76.00;;;;;;5015992;28;20034;-91
2023/10/18 10:32:46;;;;;;;11.15;10.13;;;11.50;76.20;;;;;;4972288;28;20027;-90
2023/10/18 10:35:17;;;;;;;11.23;10.13;;;11.40;75.70;;;;;;4966037;28;20028;-92
2023/10/18 10:38:09;;;;;;;11.68;10.48;;;11.50;76.50;;;;;;4968392;28;20026;-91
2023/10/18 10:40:45;;;;;;;9.77;8.77;;;11.50;77.10;;;;;;4979927;28;20385;-91
2023/10/18 10:43:14;;;;;;;12.40;11.18;;;11.40;77.20;;;;;;4978274;28;20102;-90
2023/10/18 10:51:13;;;;;;;12.15;11.05;;;11.40;77.20;;;;;;4983433;28;20524;-91
2023/10/18 10:53:45;;;;;;;10.63;9.55;;;11.40;77.10;;;;;;4996736;28;20041;-92
2023/10/18 10:56:17;;;;;;;11.65;10.65;;;11.50;77.10;;;;;;4984573;28;20068;-90
2023/10/18 10:59:09;;;;;;;11.38;9.50;;;11.70;77.50;;;;;;4999438;28;20050;-92
2023/10/18 11:01:43;;;;;;;11.00;9.88;;;11.80;76.10;;;;;;4983769;28;20022;-90
2023/10/18 11:04:14;;;;;;;11.25;10.20;;;11.90;76.00;;;;;;4964817;28;20019;-91
2023/10/18 11:06:43;;;;;;;11.13;9.95;;;12.00;75.00;;;;;;4995246;28;20022;-92
2023/10/18 11:09:15;;;;;;;10.50;9.40;;;12.10;75.10;;;;;;4986404;28;20038;-89
2023/10/18 11:11:47;;;;;;;9.70;8.70;;;12.20;73.60;;;;;;4979652;28;20049;-89
2023/10/18 11:14:22;;;;;;;10.68;9.60;;;12.30;73.70;;;;;;4984267;28;20074;-91
2023/10/18 11:16:53;;;;;;;11.50;10.35;;;12.30;74.00;;;;;;4980373;28;20031;-92
2023/10/18 11:19:28;;;;;;;10.68;9.77;;;12.40;74.00;;;;;;4992437;28;20089;-89
2023/10/18 11:21:54;;;;;;;9.93;8.43;;;12.40;73.70;;;;;;4994666;28;20035;-91
2023/10/18 11:24:22;;;;;;;10.88;8.95;;;12.40;72.60;;;;;;4985799;28;20033;-90
2023/10/18 11:26:50;;;;;;;10.40;9.27;;;12.30;74.00;;;;;;4979199;28;20046;-90
2023/10/18 11:29:24;;;;;;;12.10;10.90;;;12.40;74.00;;;;;;4979942;28;20477;-91
2023/10/18 11:31:56;;;;;;;10.98;9.98;;;12.40;73.90;;;;;;4975441;28;20093;-91
2023/10/18 11:34:25;;;;;;;12.85;10.05;;;12.40;73.90;;;;;;4978882;28;20015;-90
2023/10/18 11:36:55;;;;;;;11.52;10.35;;;12.50;74.20;;;;;;4978303;28;20026;-92
2023/10/18 11:39:23;;;;;;;13.20;11.90;;;12.50;73.60;;;;;;4985559;28;20019;-91
2023/10/18 11:41:49;;;;;;;11.98;9.43;;;12.60;73.40;;;;;;4980688;28;20030;-92
2023/10/18 11:44:33;;;;;;;12.23;10.80;;;12.70;74.10;;;;;;4997520;28;20037;-89
2023/10/18 11:47:20;;;;;;;11.90;9.07;;;12.70;74.30;;;;;;4993641;28;20030;-91
2023/10/18 11:49:53;;;;;;;9.52;8.63;;;12.80;73.60;;;;;;4999211;28;20101;-90
2023/10/18 11:52:25;;;;;;;11.05;9.95;;;12.90;72.90;;;;;;4997471;28;20030;-91
2023/10/18 11:54:52;;;;;;;10.07;8.45;;;13.00;73.10;;;;;;4994924;28;20026;-91
2023/10/18 11:57:24;;;;;;;10.30;9.25;;;12.90;72.10;;;;;;4982501;28;20026;-89
2023/10/18 11:59:52;;;;;;;10.57;8.48;;;12.90;72.60;;;;;;4986968;28;20019;-92
2023/10/18 12:02:18;;;;;;;10.45;9.35;;;13.00;73.00;;;;;;4977820;28;20037;-89
2023/10/18 12:04:45;;;;;;;10.77;8.75;;;13.00;72.50;;;;;;4986762;28;20034;-90
2023/10/18 12:07:13;;;;;;;9.55;8.65;;;13.00;72.20;;;;;;4991747;28;20026;-90
2023/10/18 12:09:51;;;;;;;9.43;8.55;;;13.10;72.30;;;;;;4988865;28;20089;-91
2023/10/18 12:12:20;;;;;;;9.38;6.75;;;13.20;71.90;;;;;;5000277;28;20378;-91
2023/10/18 12:14:48;;;;;;;10.00;8.43;;;13.20;73.00;;;;;;4986009;28;20138;-91
2023/10/18 12:17:15;;;;;;;8.90;8.00;;;13.30;70.90;;;;;;5002283;28;20022;-90
2023/10/18 12:19:42;;;;;;;9.93;8.23;;;13.40;71.70;;;;;;5000949;28;20074;-90
2023/10/18 12:22:09;;;;;;;10.15;9.13;;;13.50;71.50;;;;;;4981727;28;20026;-92
2023/10/18 12:24:35;;;;;;;10.95;8.32;;;13.60;70.80;;;;;;4973025;28;20086;-92
2023/10/18 12:29:52;;;;;;;9.63;8.82;;;13.50;72.20;;;;;;4978542;28;20063;-89
2023/10/18 12:32:25;;;;;;;9.27;8.40;;;13.40;71.80;;;;;;4981111;28;20061;-89
2023/10/18 12:34:51;;;;;;;10.02;8.77;;;13.30;71.80;;;;;;4989135;28;20038;-88
2023/10/18 12:37:17;;;;;;;9.52;8.52;;;13.30;72.80;;;;;;4981866;28;20023;-91
2023/10/18 12:39:46;;;;;;;9.55;8.52;;;13.30;72.50;;;;;;4989491;28;20026;-89
2023/10/18 12:42:14;;;;;;;10.73;9.70;;;13.10;74.20;;;;;;5007881;28;20107;-91
2023/10/18 12:44:40;;;;;;;11.30;10.20;;;13.10;74.70;;;;;;4981038;28;20033;-91
2023/10/18 12:47:12;;;;;;;11.30;10.10;;;12.90;75.90;;;;;;4980317;28;20034;-90
2023/10/18 12:49:44;;;;;;;13.25;12.00;;;12.80;76.20;;;;;;4981249;28;20038;-89
2023/10/18 12:52:41;;;;;;;12.32;11.25;;;12.90;76.00;;;;;;4980544;28;20059;-91
2023/10/18 12:54:58;;;;;;;;;;;12.90;76.20;;;;;;4989347;28;20094;-89
2023/10/18 12:57:32;;;;;;;12.18;10.98;;;12.90;78.90;;;;;;4974933;28;19917;-91
2023/10/18 13:05:11;;;;;;;10.82;9.73;;;12.70;85.80;;;;;;4998494;28;20045;-89
2023/10/18 13:07:37;;;;;;;9.00;8.18;;;12.70;85.10;;;;;;4988017;28;20030;-91
2023/10/18 13:10:11;;;;;;;10.70;9.30;;;12.70;84.40;;;;;;4980962;28;20102;-92
2023/10/18 13:12:53;;;;;;;12.90;11.70;;;12.70;85.90;;;;;;4964211;28;20030;-92
2023/10/18 13:15:19;;;;;;;12.05;10.93;;;12.70;85.60;;;;;;4994336;28;20091;-91
2023/10/18 13:17:45;;;;;;;11.32;10.40;;;12.70;86.00;;;;;;4989032;28;20054;-91
2023/10/18 13:20:17;;;;;;;10.38;9.18;;;12.70;83.80;;;;;;4986712;28;20109;-89
2023/10/18 13:22:43;;;;;;;10.38;9.38;;;12.70;85.20;;;;;;4980316;28;20034;-91
2023/10/18 13:25:09;;;;;;;10.43;9.35;;;12.80;85.70;;;;;;4984339;28;20081;-92
2023/10/18 13:27:38;;;;;;;11.32;9.48;;;12.80;84.60;;;;;;4994650;28;20026;-91
2023/10/18 13:32:51;;;;;;;11.55;10.45;;;12.70;86.40;;;;;;4981659;28;20045;-90
2023/10/18 13:35:17;;;;;;;9.55;8.50;;;12.80;86.80;;;;;;4986697;28;20049;-91
2023/10/18 13:37:43;;;;;;;8.32;7.53;;;12.80;86.80;;;;;;4990459;28;20370;-91
2023/10/18 13:40:18;;;;;;;9.00;8.18;;;12.90;85.80;;;;;;4964400;28;20022;-91
2023/10/18 13:42:45;;;;;;;10.18;9.15;;;13.00;86.80;;;;;;4965652;28;20027;-89
2023/10/18 13:45:11;;;;;;;13.23;11.88;;;13.00;87.20;;;;;;4975666;28;20512;-88
2023/10/18 13:47:36;;;;;;;15.95;14.55;;;13.10;87.70;;;;;;4989527;28;20034;-91